Time;durP1;ratioP1;P1;durP2;ratioP2;P2;SDS_P1;SDS_P2;PMS_P1;PMS_P2;Temp;Humidity;BMP_temperature;BMP_pressure;BME280_temperature;BME280_humidity;BME280_pressure;Samples;Min_cycle;Max_cycle;Signal;HPM_P1;HPM_P2
2023/08/19 00:00:27;;;;;;;16.65;15.05;;;20.70;99.90;;;;;;5122010;27;20156;-57
2023/08/19 00:02:52;;;;;;;17.30;15.55;;;20.70;99.90;;;;;;5119440;27;20066;-57
2023/08/19 00:05:18;;;;;;;18.58;15.98;;;20.60;99.90;;;;;;5121203;27;20059;-57
2023/08/19 00:07:44;;;;;;;18.55;15.38;;;20.70;99.90;;;;;;5100187;28;20062;-56
2023/08/19 00:10:10;;;;;;;17.65;15.85;;;20.70;99.90;;;;;;5122236;27;20058;-56
2023/08/19 00:12:36;;;;;;;18.23;16.30;;;20.60;99.90;;;;;;5120926;27;20066;-55
2023/08/19 00:15:02;;;;;;;15.93;14.27;;;20.60;99.90;;;;;;5120614;27;20177;-57
2023/08/19 00:17:29;;;;;;;17.20;15.48;;;20.60;99.90;;;;;;5103319;28;20139;-58
2023/08/19 00:19:55;;;;;;;16.73;14.70;;;20.70;99.90;;;;;;5118630;27;21581;-57
2023/08/19 00:22:20;;;;;;;17.30;15.35;;;20.70;99.90;;;;;;5121380;27;20544;-60
2023/08/19 00:24:46;;;;;;;17.15;15.32;;;20.70;99.90;;;;;;5119199;27;20188;-64
2023/08/19 00:27:15;;;;;;;21.15;17.23;;;20.70;99.90;;;;;;5124386;27;20137;-57
2023/08/19 00:29:40;;;;;;;17.70;15.85;;;20.70;99.90;;;;;;5121959;27;20088;-61
2023/08/19 00:32:06;;;;;;;19.27;16.95;;;20.70;99.90;;;;;;5120524;27;20051;-59
2023/08/19 00:36:57;;;;;;;18.25;16.45;;;20.70;99.90;;;;;;5118515;27;20180;-59
2023/08/19 00:39:23;;;;;;;15.88;14.38;;;20.80;99.90;;;;;;5120966;27;20146;-57
2023/08/19 00:41:48;;;;;;;18.10;15.77;;;20.70;99.90;;;;;;5121570;27;20062;-59
2023/08/19 00:44:14;;;;;;;17.65;15.82;;;20.70;99.90;;;;;;5125035;27;20408;-64
2023/08/19 00:46:41;;;;;;;16.88;15.18;;;20.70;99.90;;;;;;5122080;27;20466;-62
2023/08/19 00:49:07;;;;;;;17.80;15.85;;;20.70;99.90;;;;;;5122611;27;20802;-59
2023/08/19 00:51:36;;;;;;;18.77;16.77;;;20.70;99.90;;;;;;5125348;27;20054;-57
2023/08/19 00:54:02;;;;;;;19.15;16.63;;;20.70;99.90;;;;;;5122710;27;20136;-58
2023/08/19 00:56:28;;;;;;;17.45;15.75;;;20.70;99.90;;;;;;5124986;27;20170;-62
2023/08/19 00:58:55;;;;;;;18.33;15.63;;;20.70;99.90;;;;;;5122404;27;20538;-64
2023/08/19 01:01:21;;;;;;;18.58;16.58;;;20.70;99.90;;;;;;5124881;27;20047;-59
2023/08/19 01:03:46;;;;;;;17.90;16.00;;;20.70;99.90;;;;;;5122047;27;20047;-57
2023/08/19 01:06:12;;;;;;;17.50;15.80;;;20.70;99.90;;;;;;5124209;27;20082;-57
2023/08/19 01:08:55;;;;;;;19.67;17.25;;;20.70;99.90;;;;;;5123842;27;20050;-58
2023/08/19 01:11:24;;;;;;;16.67;15.07;;;20.70;99.90;;;;;;5122986;27;20158;-56
2023/08/19 01:14:11;;;;;;;18.77;16.95;;;20.70;99.90;;;;;;5121569;27;20779;-57
2023/08/19 01:16:39;;;;;;;18.00;15.52;;;20.60;99.90;;;;;;5122392;27;20463;-57
2023/08/19 01:19:07;;;;;;;18.02;16.15;;;20.60;99.90;;;;;;5122804;27;20566;-57
2023/08/19 01:21:37;;;;;;;20.05;16.13;;;20.50;99.90;;;;;;5124637;27;20412;-58
2023/08/19 01:24:05;;;;;;;17.13;15.50;;;20.60;99.90;;;;;;5122509;27;20051;-58
2023/08/19 01:26:31;;;;;;;23.20;16.98;;;20.50;99.90;;;;;;5124446;27;20065;-57
2023/08/19 01:28:56;;;;;;;17.48;15.63;;;20.50;99.90;;;;;;5105421;27;20443;-57
2023/08/19 01:31:22;;;;;;;16.95;15.18;;;20.50;99.90;;;;;;5102366;28;20047;-58
2023/08/19 01:33:50;;;;;;;15.38;13.85;;;20.50;99.90;;;;;;5119994;27;20058;-57
2023/08/19 01:36:35;;;;;;;18.50;16.67;;;20.40;99.90;;;;;;5120297;27;20526;-58
2023/08/19 01:39:04;;;;;;;15.98;14.45;;;20.40;99.90;;;;;;5103289;27;20074;-59
2023/08/19 01:44:23;;;;;;;18.02;14.80;;;20.30;99.90;;;;;;5121809;27;20615;-59
2023/08/19 01:46:49;;;;;;;17.67;15.88;;;20.20;99.90;;;;;;5121294;27;20055;-59
2023/08/19 01:49:15;;;;;;;18.77;16.80;;;20.20;99.90;;;;;;5123757;27;20059;-59
2023/08/19 01:51:40;;;;;;;16.55;14.80;;;20.20;99.90;;;;;;5122333;27;20082;-58
2023/08/19 01:54:06;;;;;;;17.10;15.38;;;20.20;99.90;;;;;;5123091;27;20752;-57
2023/08/19 01:56:36;;;;;;;19.52;17.52;;;20.10;99.90;;;;;;5122617;27;20055;-58
2023/08/19 01:59:02;;;;;;;16.60;14.80;;;20.10;99.90;;;;;;5121088;27;20059;-58
2023/08/19 02:01:28;;;;;;;19.42;15.98;;;20.00;99.90;;;;;;5123487;27;20051;-59
2023/08/19 02:03:53;;;;;;;16.27;14.55;;;19.90;99.90;;;;;;5120520;27;20078;-58
2023/08/19 02:06:19;;;;;;;17.60;15.80;;;19.90;99.90;;;;;;5123624;27;20485;-58
2023/08/19 02:08:45;;;;;;;16.67;14.18;;;19.90;99.90;;;;;;5121460;27;20058;-58
2023/08/19 02:11:10;;;;;;;16.13;14.43;;;19.90;99.90;;;;;;5123347;27;20059;-57
2023/08/19 02:13:36;;;;;;;15.70;14.23;;;19.80;99.90;;;;;;5122134;27;20051;-57
2023/08/19 02:16:02;;;;;;;17.48;14.82;;;19.80;99.90;;;;;;5121427;27;20058;-57
2023/08/19 02:18:28;;;;;;;19.15;15.40;;;19.80;99.90;;;;;;5105187;27;20124;-57
2023/08/19 02:20:54;;;;;;;17.48;15.77;;;19.80;99.90;;;;;;5102060;27;20416;-57
2023/08/19 02:23:20;;;;;;;18.05;14.88;;;19.80;99.90;;;;;;5105380;27;20047;-58
2023/08/19 02:25:45;;;;;;;18.42;16.48;;;19.80;99.90;;;;;;5120192;27;20047;-56
2023/08/19 02:28:11;;;;;;;16.40;14.88;;;19.80;99.90;;;;;;5122408;27;20058;-57
2023/08/19 02:30:37;;;;;;;17.23;15.52;;;19.80;99.90;;;;;;5103310;27;20051;-56
2023/08/19 02:33:08;;;;;;;21.35;16.40;;;19.80;99.90;;;;;;5121807;27;20051;-57
2023/08/19 02:35:36;;;;;;;17.05;15.20;;;19.80;99.90;;;;;;5122483;27;20047;-56
2023/08/19 02:38:01;;;;;;;18.65;16.85;;;19.80;99.90;;;;;;5120865;27;20062;-58
2023/08/19 02:40:30;;;;;;;17.85;16.05;;;19.90;99.90;;;;;;5123187;27;20063;-57
2023/08/19 02:42:56;;;;;;;17.35;15.63;;;19.80;99.90;;;;;;5120722;27;20070;-58
2023/08/19 02:45:22;;;;;;;16.80;14.93;;;19.80;99.90;;;;;;5122621;27;20055;-59
2023/08/19 02:47:47;;;;;;;20.40;18.20;;;19.80;99.90;;;;;;5062978;27;1102764;-59
2023/08/19 02:50:13;;;;;;;19.02;17.05;;;19.90;99.90;;;;;;5122686;27;20127;-59
2023/08/19 02:52:39;;;;;;;18.10;16.10;;;19.90;99.90;;;;;;5121373;27;20055;-59
2023/08/19 02:55:05;;;;;;;18.40;16.33;;;19.90;99.90;;;;;;5103554;27;20704;-57
2023/08/19 02:57:30;;;;;;;20.67;16.58;;;19.90;99.90;;;;;;5122955;27;20059;-57
2023/08/19 02:59:56;;;;;;;19.05;17.08;;;19.90;99.90;;;;;;5120053;27;20106;-57
2023/08/19 03:02:22;;;;;;;19.92;17.75;;;19.90;99.90;;;;;;5121876;27;20055;-57
2023/08/19 03:04:47;;;;;;;20.50;17.95;;;19.90;99.90;;;;;;5119194;27;20192;-57
2023/08/19 03:07:13;;;;;;;19.83;17.75;;;19.90;99.90;;;;;;5122895;27;20524;-57
2023/08/19 03:09:43;;;;;;;22.48;18.13;;;19.90;99.90;;;;;;5120734;27;20051;-57
2023/08/19 03:12:09;;;;;;;19.50;16.27;;;19.90;99.90;;;;;;5121089;27;20500;-57
2023/08/19 03:14:34;;;;;;;20.08;17.88;;;19.80;99.90;;;;;;5103637;27;20054;-58
2023/08/19 03:17:00;;;;;;;20.90;17.88;;;19.80;99.90;;;;;;5119817;27;20051;-57
2023/08/19 03:19:26;;;;;;;19.92;17.88;;;19.80;99.90;;;;;;5121695;27;20047;-60
2023/08/19 03:21:52;;;;;;;19.90;17.80;;;19.80;99.90;;;;;;5120007;28;20794;-59
2023/08/19 03:24:17;;;;;;;17.85;16.00;;;19.80;99.90;;;;;;5122281;27;20094;-57
2023/08/19 03:26:43;;;;;;;18.60;16.70;;;19.80;99.90;;;;;;5119610;27;20046;-55
2023/08/19 03:29:08;;;;;;;23.33;18.30;;;19.80;99.90;;;;;;5122217;27;20104;-57
2023/08/19 03:31:36;;;;;;;18.92;16.27;;;19.70;99.90;;;;;;5122032;27;20061;-57
2023/08/19 03:34:02;;;;;;;19.83;16.92;;;19.70;99.90;;;;;;5094701;28;20508;-57
2023/08/19 03:36:27;;;;;;;18.85;16.70;;;19.70;99.90;;;;;;5099745;28;20116;-56
2023/08/19 03:38:53;;;;;;;19.63;17.45;;;19.70;99.90;;;;;;5118018;27;20104;-57
2023/08/19 03:41:19;;;;;;;24.45;18.58;;;19.70;99.90;;;;;;5100637;28;20560;-57
2023/08/19 03:43:44;;;;;;;18.77;16.83;;;19.70;99.90;;;;;;5116502;27;20047;-55
2023/08/19 03:46:10;;;;;;;19.52;17.50;;;19.70;99.90;;;;;;5103326;28;20051;-56
2023/08/19 03:48:36;;;;;;;19.25;17.35;;;19.70;99.90;;;;;;5120702;27;20096;-58
2023/08/19 03:51:01;;;;;;;19.05;17.05;;;19.60;99.90;;;;;;5120343;27;20086;-56
2023/08/19 03:53:27;;;;;;;17.92;16.00;;;19.70;99.90;;;;;;5122134;27;20051;-56
2023/08/19 03:55:53;;;;;;;23.90;17.58;;;19.60;99.90;;;;;;5119450;27;20412;-59
2023/08/19 03:58:19;;;;;;;19.77;17.23;;;19.60;99.90;;;;;;5120923;27;20138;-57
2023/08/19 04:00:44;;;;;;;18.00;16.13;;;19.60;99.90;;;;;;5119264;27;20054;-62
2023/08/19 04:03:10;;;;;;;24.85;18.20;;;19.60;99.90;;;;;;5104566;27;20055;-56
2023/08/19 04:05:36;;;;;;;19.02;17.23;;;19.70;99.90;;;;;;5125232;27;20062;-56
2023/08/19 04:08:01;;;;;;;22.35;17.75;;;19.70;99.90;;;;;;5124050;27;21701;-58
2023/08/19 04:10:27;;;;;;;18.05;16.15;;;19.70;99.90;;;;;;5126051;27;20571;-58
2023/08/19 04:12:53;;;;;;;19.75;16.60;;;19.70;99.90;;;;;;5122524;27;20051;-57
2023/08/19 04:15:19;;;;;;;19.45;17.40;;;19.70;99.90;;;;;;5124894;27;20059;-57
2023/08/19 04:17:45;;;;;;;19.67;17.35;;;19.70;99.90;;;;;;5122953;27;20047;-56
2023/08/19 04:20:12;;;;;;;21.20;18.80;;;19.70;99.90;;;;;;5125191;27;20585;-57
2023/08/19 04:22:38;;;;;;;20.05;17.88;;;19.70;99.90;;;;;;5123754;27;20552;-57
2023/08/19 04:25:04;;;;;;;22.85;20.10;;;19.70;99.90;;;;;;5124200;27;20055;-56
2023/08/19 04:27:31;;;;;;;22.73;19.25;;;19.80;99.90;;;;;;5125181;27;20466;-57
2023/08/19 04:29:57;;;;;;;22.73;18.58;;;19.80;99.90;;;;;;5121222;27;20094;-57
2023/08/19 04:32:22;;;;;;;24.13;19.85;;;19.80;99.90;;;;;;5120806;27;20147;-57
2023/08/19 04:34:48;;;;;;;22.15;19.85;;;19.80;99.90;;;;;;5117534;27;20108;-56
2023/08/19 04:37:14;;;;;;;21.77;18.88;;;19.80;99.90;;;;;;5102858;28;20166;-57
2023/08/19 04:39:40;;;;;;;25.90;19.75;;;19.80;99.90;;;;;;5119188;27;20058;-56
2023/08/19 04:42:06;;;;;;;20.42;18.13;;;19.80;99.90;;;;;;5123970;27;20051;-57
2023/08/19 04:44:31;;;;;;;22.25;19.45;;;19.90;99.90;;;;;;5124947;27;20055;-58
2023/08/19 04:46:57;;;;;;;19.92;17.80;;;19.90;99.90;;;;;;5122431;27;20055;-58
2023/08/19 04:49:22;;;;;;;21.67;19.40;;;20.00;99.90;;;;;;5106164;27;20047;-57
2023/08/19 04:51:48;;;;;;;19.13;17.13;;;20.00;99.90;;;;;;5122498;27;20051;-57
2023/08/19 04:54:14;;;;;;;21.65;17.85;;;20.10;99.90;;;;;;5125370;27;20129;-57
2023/08/19 04:56:39;;;;;;;21.20;19.10;;;20.20;99.90;;;;;;5123090;27;20142;-56
2023/08/19 04:59:05;;;;;;;21.35;19.05;;;20.30;99.90;;;;;;5124011;27;20070;-57
2023/08/19 05:01:31;;;;;;;22.33;19.40;;;20.30;99.90;;;;;;5124301;27;20059;-57
2023/08/19 05:03:56;;;;;;;21.63;18.40;;;20.40;99.90;;;;;;5122029;27;20081;-57
2023/08/19 05:06:23;;;;;;;21.35;18.60;;;20.40;99.90;;;;;;5124291;27;20063;-57
2023/08/19 05:08:48;;;;;;;22.85;16.30;;;20.50;99.90;;;;;;5118729;27;20511;-57
2023/08/19 05:11:14;;;;;;;19.67;17.58;;;20.60;99.90;;;;;;5123504;27;20059;-57
2023/08/19 05:13:40;;;;;;;18.98;16.98;;;20.70;99.90;;;;;;5121740;27;20507;-58
2023/08/19 05:16:05;;;;;;;17.48;14.57;;;20.70;99.90;;;;;;5123947;27;20055;-63
2023/08/19 05:18:31;;;;;;;19.02;15.80;;;20.80;99.90;;;;;;5104279;27;20059;-57
2023/08/19 05:20:57;;;;;;;17.75;15.63;;;20.90;99.90;;;;;;5121709;27;20593;-62
2023/08/19 05:23:22;;;;;;;17.45;15.55;;;21.00;99.90;;;;;;5102570;28;20076;-59
2023/08/19 05:25:48;;;;;;;18.73;14.90;;;21.00;99.90;;;;;;5119563;27;20047;-65
2023/08/19 05:28:14;;;;;;;15.88;14.27;;;21.10;99.90;;;;;;5123930;27;20047;-60
2023/08/19 05:30:39;;;;;;;15.30;13.73;;;21.20;99.90;;;;;;5123029;27;20133;-58
2023/08/19 05:33:05;;;;;;;15.25;13.75;;;21.20;99.90;;;;;;5123087;27;20062;-64
2023/08/19 05:35:31;;;;;;;14.57;13.05;;;21.30;99.90;;;;;;5124233;27;20055;-57
2023/08/19 05:37:56;;;;;;;15.27;13.65;;;21.30;99.90;;;;;;5102030;27;20126;-57
2023/08/19 05:40:22;;;;;;;13.75;12.35;;;21.40;99.90;;;;;;5105042;27;20082;-59
2023/08/19 05:42:48;;;;;;;13.38;11.43;;;21.40;99.90;;;;;;5119926;27;20508;-58
2023/08/19 05:45:14;;;;;;;13.32;12.02;;;21.50;99.90;;;;;;5122612;27;20136;-61
2023/08/19 05:47:40;;;;;;;13.85;12.23;;;21.50;99.90;;;;;;5120896;27;20055;-60
2023/08/19 05:50:07;;;;;;;15.38;12.25;;;21.60;99.90;;;;;;5121615;27;20132;-66
2023/08/19 05:55:01;;;;;;;12.15;11.00;;;21.60;99.90;;;;;;5119459;27;20134;-60
2023/08/19 05:57:27;;;;;;;13.93;10.63;;;21.60;99.90;;;;;;5122821;27;20134;-59
2023/08/19 05:59:52;;;;;;;13.70;11.77;;;21.70;99.90;;;;;;5119438;27;20055;-58
2023/08/19 06:02:18;;;;;;;11.88;10.77;;;21.70;99.90;;;;;;5122147;27;20137;-57
2023/08/19 06:04:44;;;;;;;11.00;9.98;;;21.90;99.90;;;;;;5119585;27;20059;-57
2023/08/19 06:07:10;;;;;;;14.52;10.95;;;21.90;99.90;;;;;;5121806;27;20798;-61
2023/08/19 06:09:35;;;;;;;11.15;10.10;;;22.10;99.90;;;;;;5120269;27;20627;-56
2023/08/19 06:12:02;;;;;;;11.80;9.70;;;22.10;99.90;;;;;;5116328;27;20054;-57
2023/08/19 06:14:28;;;;;;;10.57;9.57;;;22.30;99.90;;;;;;5114105;27;20082;-61
2023/08/19 06:16:54;;;;;;;11.50;10.40;;;22.40;99.90;;;;;;5118180;27;20554;-57
2023/08/19 06:19:20;;;;;;;12.65;10.68;;;22.50;99.90;;;;;;5120845;27;20058;-57
2023/08/19 06:21:46;;;;;;;11.00;9.80;;;22.70;99.90;;;;;;5099908;27;20108;-60
2023/08/19 06:24:11;;;;;;;10.60;9.27;;;22.90;99.90;;;;;;5120668;27;20058;-61
2023/08/19 06:26:37;;;;;;;11.35;10.25;;;23.00;99.90;;;;;;5120126;27;20066;-60
2023/08/19 06:29:03;;;;;;;15.48;10.20;;;23.10;99.90;;;;;;5120817;27;20515;-61
2023/08/19 06:31:29;;;;;;;12.07;10.43;;;23.10;99.90;;;;;;5122470;27;20051;-57
2023/08/19 06:33:55;;;;;;;11.90;9.60;;;23.20;99.90;;;;;;5118586;27;20051;-61
2023/08/19 06:36:25;;;;;;;11.07;9.10;;;23.20;99.90;;;;;;5122163;27;20058;-61
2023/08/19 06:39:17;;;;;;;10.45;9.35;;;23.40;99.90;;;;;;5120402;27;20055;-57
2023/08/19 06:41:49;;;;;;;9.85;8.85;;;23.40;99.90;;;;;;5101593;27;20063;-57
2023/08/19 06:44:15;;;;;;;9.63;8.68;;;23.50;99.90;;;;;;5122378;27;20055;-57
2023/08/19 06:46:43;;;;;;;9.40;8.48;;;23.60;99.90;;;;;;5120406;27;20508;-57
2023/08/19 06:49:08;;;;;;;9.35;8.45;;;23.60;99.90;;;;;;5122253;27;20066;-59
2023/08/19 06:51:35;;;;;;;8.98;7.97;;;23.60;99.90;;;;;;5122276;27;20488;-65
2023/08/19 06:54:01;;;;;;;10.05;8.13;;;23.60;99.90;;;;;;5120336;27;20043;-61
2023/08/19 06:56:35;;;;;;;10.50;8.93;;;23.60;99.90;;;;;;5099186;27;20515;-63
2023/08/19 06:59:04;;;;;;;9.93;8.90;;;23.50;99.90;;;;;;5100516;27;20055;-58
2023/08/19 07:01:31;;;;;;;10.45;8.48;;;23.40;99.90;;;;;;5096621;27;20863;-57
2023/08/19 07:03:57;;;;;;;9.48;8.00;;;23.50;99.90;;;;;;5101886;27;20121;-58
2023/08/19 07:06:24;;;;;;;10.10;9.10;;;23.40;99.90;;;;;;5111552;27;20059;-57
2023/08/19 07:08:50;;;;;;;9.43;7.43;;;23.40;99.90;;;;;;5098742;28;20105;-58
2023/08/19 07:11:16;;;;;;;10.15;8.63;;;23.40;99.90;;;;;;5038699;28;1108377;-57
2023/08/19 07:13:43;;;;;;;11.68;8.55;;;23.30;99.90;;;;;;5090640;28;20058;-58
2023/08/19 07:16:10;;;;;;;10.30;8.25;;;23.40;99.90;;;;;;5086109;28;20115;-57
2023/08/19 07:18:47;;;;;;;9.57;8.63;;;23.40;99.90;;;;;;5099625;28;20501;-57
2023/08/19 07:21:15;;;;;;;8.52;7.72;;;23.20;99.90;;;;;;5098392;28;20043;-58
2023/08/19 07:23:43;;;;;;;9.35;7.32;;;23.20;99.90;;;;;;5091709;28;20080;-56
2023/08/19 07:26:09;;;;;;;9.20;8.30;;;23.20;99.90;;;;;;5101154;28;20059;-58
2023/08/19 07:28:35;;;;;;;8.52;7.72;;;23.20;99.90;;;;;;5092586;28;20059;-59
2023/08/19 07:31:04;;;;;;;9.77;8.55;;;23.30;99.90;;;;;;5097110;28;20056;-58
2023/08/19 07:33:30;;;;;;;8.25;7.28;;;23.50;99.90;;;;;;5119764;28;20055;-58
2023/08/19 07:35:56;;;;;;;9.38;8.13;;;23.50;99.90;;;;;;5096605;28;20054;-57
2023/08/19 07:38:22;;;;;;;8.93;7.78;;;23.60;99.90;;;;;;5100962;28;20505;-58
2023/08/19 07:40:47;;;;;;;8.75;7.47;;;23.60;99.90;;;;;;5098832;28;20054;-57
2023/08/19 07:43:13;;;;;;;12.55;7.93;;;23.70;99.90;;;;;;5083508;28;20772;-57
2023/08/19 07:45:39;;;;;;;12.07;8.77;;;23.80;99.90;;;;;;5100912;28;20055;-56
2023/08/19 07:48:05;;;;;;;8.23;7.35;;;24.00;99.90;;;;;;5102957;27;20768;-57
2023/08/19 07:50:31;;;;;;;8.57;7.68;;;24.10;99.90;;;;;;5103169;28;20096;-58
2023/08/19 07:52:57;;;;;;;9.10;7.93;;;24.20;99.90;;;;;;5101703;28;20062;-57
2023/08/19 07:55:22;;;;;;;9.02;8.10;;;24.40;99.90;;;;;;5101266;28;20596;-58
2023/08/19 07:57:48;;;;;;;7.00;6.30;;;24.60;99.90;;;;;;5099602;28;20412;-57
2023/08/19 08:00:14;;;;;;;8.68;7.40;;;24.70;99.90;;;;;;5101436;28;20504;-57
2023/08/19 08:02:40;;;;;;;9.10;8.00;;;24.70;99.90;;;;;;5100431;28;20142;-57
2023/08/19 08:05:07;;;;;;;10.93;7.85;;;24.90;99.90;;;;;;5100337;28;20051;-57
2023/08/19 08:07:37;;;;;;;7.60;6.65;;;25.00;99.90;;;;;;5101164;27;20164;-57
2023/08/19 08:10:03;;;;;;;9.52;7.30;;;25.10;99.90;;;;;;5097269;27;20568;-57
2023/08/19 08:12:30;;;;;;;7.93;7.13;;;25.10;99.90;;;;;;5104054;28;20062;-57
2023/08/19 08:14:57;;;;;;;10.15;7.15;;;25.10;99.90;;;;;;5099382;28;20764;-57
2023/08/19 08:17:23;;;;;;;6.97;5.93;;;25.00;99.90;;;;;;5079810;28;20063;-58
2023/08/19 08:19:49;;;;;;;8.15;6.03;;;25.00;99.90;;;;;;5081475;28;20055;-57
2023/08/19 08:22:15;;;;;;;7.60;6.88;;;25.10;99.90;;;;;;5102065;28;20087;-57
2023/08/19 08:24:42;;;;;;;16.00;8.80;;;25.30;99.90;;;;;;5101819;28;20135;-58
2023/08/19 08:27:08;;;;;;;10.52;6.47;;;25.30;99.90;;;;;;5101643;28;20070;-58
2023/08/19 08:29:36;;;;;;;7.82;6.53;;;25.50;99.90;;;;;;5099551;28;20045;-58
2023/08/19 08:32:01;;;;;;;9.55;6.93;;;25.60;99.90;;;;;;5098604;28;20094;-57
2023/08/19 08:34:28;;;;;;;7.65;6.88;;;25.80;99.90;;;;;;5092636;28;20102;-57
2023/08/19 08:36:54;;;;;;;8.65;6.55;;;25.90;99.90;;;;;;5097781;27;20151;-57
2023/08/19 08:39:19;;;;;;;7.72;6.13;;;25.90;99.90;;;;;;5097534;28;20055;-57
2023/08/19 08:41:45;;;;;;;11.52;7.07;;;26.00;99.90;;;;;;5077142;28;20055;-58
2023/08/19 08:44:12;;;;;;;7.53;5.95;;;25.90;99.90;;;;;;5102023;28;20083;-57
2023/08/19 08:46:39;;;;;;;6.72;5.93;;;25.90;99.90;;;;;;5101340;28;20047;-57
2023/08/19 08:49:05;;;;;;;6.78;5.97;;;25.90;99.90;;;;;;5100161;28;20058;-57
2023/08/19 08:51:31;;;;;;;6.25;5.40;;;25.90;99.90;;;;;;5080753;28;20087;-57
2023/08/19 08:54:00;;;;;;;8.18;5.68;;;26.10;99.90;;;;;;5081834;28;20109;-58
2023/08/19 08:56:26;;;;;;;7.20;6.30;;;26.20;99.90;;;;;;5097878;28;20071;-57
2023/08/19 08:58:52;;;;;;;6.97;6.28;;;26.20;99.90;;;;;;5096269;28;20052;-60
2023/08/19 09:01:20;;;;;;;9.98;5.68;;;26.30;99.90;;;;;;5073226;28;20051;-58
2023/08/19 09:03:46;;;;;;;6.20;5.50;;;26.70;99.90;;;;;;5103989;27;20051;-57
2023/08/19 09:06:16;;;;;;;7.97;6.25;;;27.00;99.90;;;;;;5118731;27;20373;-58
2023/08/19 09:08:49;;;;;;;6.28;5.60;;;27.60;99.90;;;;;;5108255;27;20047;-57
2023/08/19 09:11:21;;;;;;;10.63;5.88;;;27.90;99.90;;;;;;5118617;27;20086;-57
2023/08/19 09:13:51;;;;;;;6.05;5.45;;;28.10;99.90;;;;;;5091011;27;20055;-58
2023/08/19 09:16:16;;;;;;;8.45;5.60;;;28.10;99.90;;;;;;5112685;27;21048;-57
2023/08/19 09:18:42;;;;;;;7.72;6.43;;;28.10;99.90;;;;;;5098759;27;20053;-58
2023/08/19 09:21:08;;;;;;;6.90;6.20;;;28.40;99.90;;;;;;5102079;27;20626;-57
2023/08/19 09:23:39;;;;;;;6.55;5.95;;;28.50;99.90;;;;;;5117624;27;20074;-58
2023/08/19 09:26:09;;;;;;;5.47;4.97;;;28.60;99.90;;;;;;5117901;27;20089;-59
2023/08/19 09:28:36;;;;;;;6.47;5.85;;;28.40;99.90;;;;;;5119993;27;20103;-57
2023/08/19 09:31:20;;;;;;;5.25;4.70;;;28.60;99.90;;;;;;5115893;27;20754;-58
2023/08/19 09:33:52;;;;;;;5.82;5.15;;;29.10;99.90;;;;;;5119004;27;20058;-58
2023/08/19 09:36:21;;;;;;;13.82;6.05;;;28.90;99.90;;;;;;5122907;27;20087;-57
2023/08/19 09:38:53;;;;;;;6.78;4.90;;;29.30;99.90;;;;;;5100990;27;20709;-57
2023/08/19 09:41:19;;;;;;;7.70;4.97;;;29.20;99.90;;;;;;5091608;28;20113;-58
2023/08/19 09:43:48;;;;;;;8.18;5.05;;;29.50;99.90;;;;;;5099336;28;20112;-57
2023/08/19 09:46:16;;;;;;;5.10;4.60;;;29.40;99.90;;;;;;5097762;28;20067;-58
2023/08/19 09:48:55;;;;;;;6.18;4.63;;;29.40;99.90;;;;;;5099133;28;20083;-57
2023/08/19 09:51:25;;;;;;;5.82;4.55;;;29.40;99.90;;;;;;5098111;27;20056;-58
2023/08/19 09:53:51;;;;;;;4.68;4.22;;;29.70;99.90;;;;;;5098900;28;20052;-58
2023/08/19 09:56:27;;;;;;;5.03;3.95;;;29.70;99.90;;;;;;5102700;27;20146;-57
2023/08/19 09:58:57;;;;;;;4.43;4.03;;;29.30;99.90;;;;;;5072762;28;20055;-59
2023/08/19 10:01:25;;;;;;;5.97;4.50;;;29.20;99.90;;;;;;5103770;27;20063;-58
2023/08/19 10:03:51;;;;;;;4.38;3.97;;;29.60;99.90;;;;;;5090880;28;20162;-61
2023/08/19 10:06:24;;;;;;;7.30;4.35;;;29.70;99.90;;;;;;5092837;28;20055;-60
2023/08/19 10:08:54;;;;;;;5.90;3.95;;;29.90;99.90;;;;;;5082661;28;20052;-67
2023/08/19 10:11:22;;;;;;;5.85;4.18;;;30.10;99.90;;;;;;5099781;28;20066;-67
2023/08/19 10:13:50;;;;;;;4.70;4.30;;;29.90;99.90;;;;;;5085213;28;20131;-62
2023/08/19 10:16:15;;;;;;;4.43;4.03;;;30.30;99.90;;;;;;5113365;27;20058;-62
2023/08/19 10:18:45;;;;;;;6.45;4.25;;;30.30;99.90;;;;;;5107034;27;20047;-57
2023/08/19 10:21:14;;;;;;;4.18;3.78;;;30.10;99.90;;;;;;5117069;27;20147;-57
2023/08/19 10:23:43;;;;;;;5.95;4.70;;;29.90;99.90;;;;;;5114808;27;20074;-58
2023/08/19 10:26:09;;;;;;;5.28;4.40;;;29.80;99.90;;;;;;5110395;27;20055;-64
2023/08/19 10:28:36;;;;;;;6.63;4.13;;;29.50;99.90;;;;;;5116874;27;20051;-62
2023/08/19 10:31:12;;;;;;;6.68;4.60;;;29.30;99.90;;;;;;5111416;27;20063;-58
2023/08/19 10:33:44;;;;;;;9.07;4.35;;;28.90;99.90;;;;;;5114596;27;20076;-58
2023/08/19 10:36:19;;;;;;;5.72;4.20;;;28.40;99.90;;;;;;5114969;27;20082;-57
2023/08/19 10:38:55;;;;;;;18.90;4.60;;;28.40;99.90;;;;;;5093530;27;20588;-57
2023/08/19 10:41:23;;;;;;;5.43;4.60;;;28.20;99.90;;;;;;5106946;27;20112;-58
2023/08/19 10:43:59;;;;;;;5.93;4.50;;;28.20;99.90;;;;;;5113516;27;20058;-57
2023/08/19 10:49:03;;;;;;;5.65;4.28;;;28.00;99.90;;;;;;5117785;27;20054;-57
2023/08/19 10:54:08;;;;;;;7.38;5.07;;;28.00;99.90;;;;;;5109811;27;20457;-57
2023/08/19 10:56:36;;;;;;;7.15;4.60;;;28.10;99.90;;;;;;5087331;28;20059;-57
2023/08/19 10:59:02;;;;;;;6.22;4.60;;;28.10;99.90;;;;;;5093594;28;20102;-57
2023/08/19 11:01:31;;;;;;;7.97;4.47;;;28.20;99.90;;;;;;5115613;27;20548;-57
2023/08/19 11:04:00;;;;;;;7.28;4.68;;;28.30;99.90;;;;;;5119789;27;20059;-58
2023/08/19 11:06:29;;;;;;;6.32;5.60;;;28.30;99.90;;;;;;5118854;27;20059;-58
2023/08/19 11:08:59;;;;;;;6.60;5.82;;;28.10;99.90;;;;;;5110131;27;20059;-58
2023/08/19 11:11:25;;;;;;;7.43;5.22;;;27.80;99.90;;;;;;5113942;27;20056;-57
2023/08/19 11:13:52;;;;;;;5.63;4.97;;;27.60;99.90;;;;;;5091226;27;20066;-57
2023/08/19 11:16:18;;;;;;;7.25;6.00;;;27.40;99.90;;;;;;5118592;27;20434;-57
2023/08/19 11:18:43;;;;;;;9.00;5.28;;;27.50;99.90;;;;;;5112870;27;20939;-58
2023/08/19 11:21:09;;;;;;;8.48;5.93;;;27.70;99.90;;;;;;5110361;27;20108;-58
2023/08/19 11:23:36;;;;;;;7.70;5.78;;;27.50;99.90;;;;;;5119666;27;20403;-58
2023/08/19 11:26:02;;;;;;;7.25;5.38;;;27.40;99.90;;;;;;5092589;27;20083;-60
2023/08/19 11:30:18;;;;;;;6.55;5.60;;;27.40;99.90;;;;;;5095442;27;20451;-57
2023/08/19 11:32:48;;;;;;;6.97;5.60;;;27.50;99.90;;;;;;5109291;28;20066;-57
2023/08/19 11:35:13;;;;;;;7.53;5.53;;;27.70;99.90;;;;;;5104503;28;20059;-58
2023/08/19 11:37:41;;;;;;;6.07;5.47;;;28.30;99.90;;;;;;5114021;27;20062;-60
2023/08/19 11:40:08;;;;;;;20.13;8.05;;;29.00;99.90;;;;;;5112605;27;20059;-57
2023/08/19 11:42:33;;;;;;;9.00;5.88;;;29.70;99.90;;;;;;5111623;27;20097;-58
2023/08/19 11:44:59;;;;;;;5.95;5.40;;;30.50;99.90;;;;;;5109319;28;20899;-57
2023/08/19 11:47:25;;;;;;;5.85;5.43;;;31.90;99.90;;;;;;5113670;28;20063;-58
2023/08/19 11:49:51;;;;;;;9.90;5.93;;;31.90;99.90;;;;;;5112703;28;20572;-57
2023/08/19 11:52:20;;;;;;;9.07;6.07;;;32.30;99.90;;;;;;5122621;27;20069;-57
2023/08/19 11:55:01;;;;;;;8.13;6.50;;;31.60;99.90;;;;;;5117722;27;20059;-57
2023/08/19 11:57:35;;;;;;;8.00;6.30;;;30.80;99.90;;;;;;5105566;27;20147;-57
2023/08/19 12:00:01;;;;;;;8.38;7.05;;;30.80;99.90;;;;;;5110498;27;20137;-65
2023/08/19 12:02:29;;;;;;;6.70;5.55;;;31.00;99.90;;;;;;5118822;27;20086;-58
2023/08/19 12:04:55;;;;;;;7.95;6.03;;;30.90;99.90;;;;;;5107869;27;20109;-57
2023/08/19 12:07:29;;;;;;;9.50;7.15;;;30.50;99.90;;;;;;5113644;27;20048;-57
2023/08/19 12:09:58;;;;;;;7.03;6.15;;;30.10;99.90;;;;;;5108186;27;20509;-58
2023/08/19 12:12:24;;;;;;;10.48;7.53;;;30.00;99.90;;;;;;5113869;27;20057;-57
2023/08/19 12:14:50;;;;;;;10.55;7.90;;;30.40;99.90;;;;;;5129792;27;20396;-57
2023/08/19 12:17:17;;;;;;;9.90;7.20;;;30.40;99.90;;;;;;5116843;27;20055;-58
2023/08/19 12:19:47;;;;;;;9.35;8.45;;;30.30;99.90;;;;;;5120613;27;20819;-57
2023/08/19 12:22:13;;;;;;;10.52;8.05;;;30.50;99.90;;;;;;5111226;27;20051;-57
2023/08/19 12:24:41;;;;;;;11.80;8.45;;;30.80;99.90;;;;;;5118314;27;20063;-57
2023/08/19 12:27:07;;;;;;;9.77;8.90;;;31.00;99.90;;;;;;5111338;27;20079;-61
2023/08/19 12:29:33;;;;;;;10.60;9.50;;;30.30;99.90;;;;;;5116356;27;20138;-58
2023/08/19 12:31:59;;;;;;;12.70;10.93;;;30.20;99.90;;;;;;5114530;27;20982;-57
2023/08/19 12:34:24;;;;;;;12.75;11.23;;;30.10;99.90;;;;;;5112819;27;20699;-58
2023/08/19 12:36:51;;;;;;;13.75;9.25;;;30.40;99.90;;;;;;5121048;27;20044;-57
2023/08/19 12:39:17;;;;;;;12.70;11.52;;;32.00;99.90;;;;;;5118364;27;20673;-57
2023/08/19 12:41:44;;;;;;;11.13;10.13;;;32.10;99.90;;;;;;5105333;27;20084;-57
2023/08/19 12:44:13;;;;;;;12.25;10.52;;;31.60;99.90;;;;;;5072686;27;20172;-58
2023/08/19 12:46:49;;;;;;;12.13;10.98;;;30.80;99.90;;;;;;5131934;27;20055;-57
2023/08/19 12:49:15;;;;;;;12.82;11.57;;;30.30;99.90;;;;;;5119787;27;20516;-57